sensor_id;sensor_type;location;lat;lon;timestamp;P1;durP1;ratioP1;P2;durP2;ratioP2
36443;SDS011;24692;45.642;13.806;2024-01-15T00:01:46;108.47;;;62.87;;
36443;SDS011;24692;45.642;13.806;2024-01-15T00:04:11;106.83;;;63.33;;
36443;SDS011;24692;45.642;13.806;2024-01-15T00:06:37;101.80;;;61.23;;
36443;SDS011;24692;45.642;13.806;2024-01-15T00:09:03;106.90;;;65.17;;
36443;SDS011;24692;45.642;13.806;2024-01-15T00:11:28;105.17;;;64.23;;
36443;SDS011;24692;45.642;13.806;2024-01-15T00:13:54;106.27;;;65.33;;
36443;SDS011;24692;45.642;13.806;2024-01-15T00:16:20;104.83;;;62.87;;
36443;SDS011;24692;45.642;13.806;2024-01-15T00:18:45;110.00;;;66.33;;
36443;SDS011;24692;45.642;13.806;2024-01-15T00:21:11;103.37;;;65.00;;
36443;SDS011;24692;45.642;13.806;2024-01-15T00:23:37;112.13;;;67.47;;
36443;SDS011;24692;45.642;13.806;2024-01-15T00:26:07;110.03;;;67.30;;
36443;SDS011;24692;45.642;13.806;2024-01-15T00:28:32;114.23;;;70.20;;
36443;SDS011;24692;45.642;13.806;2024-01-15T00:30:58;108.43;;;66.23;;
36443;SDS011;24692;45.642;13.806;2024-01-15T00:33:23;109.63;;;67.37;;
36443;SDS011;24692;45.642;13.806;2024-01-15T00:35:49;115.07;;;70.60;;
36443;SDS011;24692;45.642;13.806;2024-01-15T00:38:15;113.33;;;67.97;;
36443;SDS011;24692;45.642;13.806;2024-01-15T00:40:41;110.80;;;67.40;;
36443;SDS011;24692;45.642;13.806;2024-01-15T00:43:06;109.57;;;68.73;;
36443;SDS011;24692;45.642;13.806;2024-01-15T00:45:32;112.97;;;66.90;;
36443;SDS011;24692;45.642;13.806;2024-01-15T00:47:58;111.03;;;67.60;;
36443;SDS011;24692;45.642;13.806;2024-01-15T00:50:26;110.50;;;68.67;;
36443;SDS011;24692;45.642;13.806;2024-01-15T00:52:51;108.97;;;65.57;;
36443;SDS011;24692;45.642;13.806;2024-01-15T00:55:17;109.17;;;66.03;;
36443;SDS011;24692;45.642;13.806;2024-01-15T00:57:43;106.03;;;65.83;;
36443;SDS011;24692;45.642;13.806;2024-01-15T01:00:08;106.03;;;65.47;;
36443;SDS011;24692;45.642;13.806;2024-01-15T01:02:34;110.60;;;67.33;;
36443;SDS011;24692;45.642;13.806;2024-01-15T01:05:00;114.67;;;69.30;;
36443;SDS011;24692;45.642;13.806;2024-01-15T01:07:26;102.07;;;63.83;;
36443;SDS011;24692;45.642;13.806;2024-01-15T01:09:51;107.23;;;65.60;;
36443;SDS011;24692;45.642;13.806;2024-01-15T01:12:17;103.90;;;64.63;;
36443;SDS011;24692;45.642;13.806;2024-01-15T01:14:43;107.67;;;63.83;;
36443;SDS011;24692;45.642;13.806;2024-01-15T01:17:08;104.77;;;62.23;;
36443;SDS011;24692;45.642;13.806;2024-01-15T01:19:34;105.73;;;64.03;;
36443;SDS011;24692;45.642;13.806;2024-01-15T01:22:00;104.93;;;62.80;;
36443;SDS011;24692;45.642;13.806;2024-01-15T01:24:25;106.37;;;62.37;;
36443;SDS011;24692;45.642;13.806;2024-01-15T01:26:52;107.83;;;62.80;;
36443;SDS011;24692;45.642;13.806;2024-01-15T01:29:17;96.40;;;58.37;;
36443;SDS011;24692;45.642;13.806;2024-01-15T01:31:43;96.77;;;59.97;;
36443;SDS011;24692;45.642;13.806;2024-01-15T01:34:09;101.37;;;60.43;;
36443;SDS011;24692;45.642;13.806;2024-01-15T01:36:35;105.80;;;64.87;;
36443;SDS011;24692;45.642;13.806;2024-01-15T01:39:01;109.30;;;65.97;;
36443;SDS011;24692;45.642;13.806;2024-01-15T01:41:27;105.17;;;63.57;;
36443;SDS011;24692;45.642;13.806;2024-01-15T01:43:52;100.10;;;60.20;;
36443;SDS011;24692;45.642;13.806;2024-01-15T01:46:18;104.77;;;62.37;;
36443;SDS011;24692;45.642;13.806;2024-01-15T01:48:44;100.90;;;61.17;;
36443;SDS011;24692;45.642;13.806;2024-01-15T01:51:10;95.03;;;59.80;;
36443;SDS011;24692;45.642;13.806;2024-01-15T01:53:37;86.20;;;52.57;;
36443;SDS011;24692;45.642;13.806;2024-01-15T01:56:03;92.87;;;55.50;;
36443;SDS011;24692;45.642;13.806;2024-01-15T01:58:29;90.63;;;54.10;;
36443;SDS011;24692;45.642;13.806;2024-01-15T02:00:57;92.83;;;54.83;;
36443;SDS011;24692;45.642;13.806;2024-01-15T02:03:24;86.83;;;53.37;;
36443;SDS011;24692;45.642;13.806;2024-01-15T02:05:51;86.40;;;52.10;;
36443;SDS011;24692;45.642;13.806;2024-01-15T02:08:18;87.70;;;51.60;;
36443;SDS011;24692;45.642;13.806;2024-01-15T02:10:44;85.00;;;51.33;;
36443;SDS011;24692;45.642;13.806;2024-01-15T02:13:10;88.60;;;51.67;;
36443;SDS011;24692;45.642;13.806;2024-01-15T02:15:36;88.43;;;52.00;;
36443;SDS011;24692;45.642;13.806;2024-01-15T02:20:28;85.43;;;50.70;;
36443;SDS011;24692;45.642;13.806;2024-01-15T02:23:28;85.53;;;50.60;;
36443;SDS011;24692;45.642;13.806;2024-01-15T02:25:47;85.63;;;50.87;;
36443;SDS011;24692;45.642;13.806;2024-01-15T02:28:14;84.93;;;51.67;;
36443;SDS011;24692;45.642;13.806;2024-01-15T02:30:41;83.90;;;51.60;;
36443;SDS011;24692;45.642;13.806;2024-01-15T02:33:08;89.07;;;53.47;;
36443;SDS011;24692;45.642;13.806;2024-01-15T02:35:35;84.17;;;51.17;;
36443;SDS011;24692;45.642;13.806;2024-01-15T02:38:04;85.20;;;51.20;;
36443;SDS011;24692;45.642;13.806;2024-01-15T02:40:31;88.03;;;52.17;;
36443;SDS011;24692;45.642;13.806;2024-01-15T02:42:56;87.73;;;52.33;;
36443;SDS011;24692;45.642;13.806;2024-01-15T02:45:22;85.97;;;50.97;;
36443;SDS011;24692;45.642;13.806;2024-01-15T02:47:49;83.97;;;50.50;;
36443;SDS011;24692;45.642;13.806;2024-01-15T02:50:14;90.50;;;52.43;;
36443;SDS011;24692;45.642;13.806;2024-01-15T02:52:43;83.83;;;50.23;;
36443;SDS011;24692;45.642;13.806;2024-01-15T02:55:09;76.73;;;46.80;;
36443;SDS011;24692;45.642;13.806;2024-01-15T02:57:35;73.63;;;46.17;;
36443;SDS011;24692;45.642;13.806;2024-01-15T03:00:01;78.30;;;48.53;;
36443;SDS011;24692;45.642;13.806;2024-01-15T03:02:28;76.93;;;46.33;;
36443;SDS011;24692;45.642;13.806;2024-01-15T03:04:56;72.57;;;44.30;;
36443;SDS011;24692;45.642;13.806;2024-01-15T03:07:22;75.50;;;46.10;;
36443;SDS011;24692;45.642;13.806;2024-01-15T03:09:48;80.87;;;48.57;;
36443;SDS011;24692;45.642;13.806;2024-01-15T03:12:13;79.13;;;46.50;;
36443;SDS011;24692;45.642;13.806;2024-01-15T03:14:39;82.33;;;48.20;;
36443;SDS011;24692;45.642;13.806;2024-01-15T03:17:05;71.77;;;43.80;;
36443;SDS011;24692;45.642;13.806;2024-01-15T03:19:31;74.83;;;43.93;;
36443;SDS011;24692;45.642;13.806;2024-01-15T03:21:59;79.87;;;47.90;;
36443;SDS011;24692;45.642;13.806;2024-01-15T03:24:25;76.43;;;46.10;;
36443;SDS011;24692;45.642;13.806;2024-01-15T03:26:51;72.63;;;44.67;;
36443;SDS011;24692;45.642;13.806;2024-01-15T03:29:17;79.20;;;47.07;;
36443;SDS011;24692;45.642;13.806;2024-01-15T03:31:42;74.63;;;46.43;;
36443;SDS011;24692;45.642;13.806;2024-01-15T03:34:08;75.97;;;46.57;;
36443;SDS011;24692;45.642;13.806;2024-01-15T03:36:34;79.67;;;49.23;;
36443;SDS011;24692;45.642;13.806;2024-01-15T03:38:59;77.77;;;48.53;;
36443;SDS011;24692;45.642;13.806;2024-01-15T03:41:25;80.10;;;48.83;;
36443;SDS011;24692;45.642;13.806;2024-01-15T03:43:51;78.13;;;47.00;;
36443;SDS011;24692;45.642;13.806;2024-01-15T03:46:16;78.77;;;48.30;;
36443;SDS011;24692;45.642;13.806;2024-01-15T03:48:42;78.53;;;46.27;;
36443;SDS011;24692;45.642;13.806;2024-01-15T03:51:08;82.30;;;49.33;;
36443;SDS011;24692;45.642;13.806;2024-01-15T03:53:33;71.80;;;43.77;;
36443;SDS011;24692;45.642;13.806;2024-01-15T03:55:59;79.97;;;47.27;;
36443;SDS011;24692;45.642;13.806;2024-01-15T03:58:24;76.40;;;46.87;;
36443;SDS011;24692;45.642;13.806;2024-01-15T04:00:50;77.47;;;47.97;;
36443;SDS011;24692;45.642;13.806;2024-01-15T04:03:16;79.43;;;47.13;;
36443;SDS011;24692;45.642;13.806;2024-01-15T04:05:42;74.90;;;45.93;;
36443;SDS011;24692;45.642;13.806;2024-01-15T04:08:07;78.03;;;45.20;;
36443;SDS011;24692;45.642;13.806;2024-01-15T04:10:33;75.13;;;44.90;;
36443;SDS011;24692;45.642;13.806;2024-01-15T04:12:59;72.77;;;45.03;;
36443;SDS011;24692;45.642;13.806;2024-01-15T04:15:26;74.93;;;45.10;;
36443;SDS011;24692;45.642;13.806;2024-01-15T04:17:52;76.03;;;44.63;;
36443;SDS011;24692;45.642;13.806;2024-01-15T04:20:18;71.43;;;44.50;;
36443;SDS011;24692;45.642;13.806;2024-01-15T04:22:43;76.13;;;45.97;;
36443;SDS011;24692;45.642;13.806;2024-01-15T04:25:09;74.43;;;44.77;;
36443;SDS011;24692;45.642;13.806;2024-01-15T04:27:35;80.73;;;46.80;;
36443;SDS011;24692;45.642;13.806;2024-01-15T04:30:00;72.67;;;45.23;;
36443;SDS011;24692;45.642;13.806;2024-01-15T04:32:26;75.90;;;46.17;;
36443;SDS011;24692;45.642;13.806;2024-01-15T04:34:52;73.37;;;45.10;;
36443;SDS011;24692;45.642;13.806;2024-01-15T04:37:17;71.77;;;42.73;;
36443;SDS011;24692;45.642;13.806;2024-01-15T04:39:43;75.30;;;45.90;;
36443;SDS011;24692;45.642;13.806;2024-01-15T04:42:09;70.13;;;42.93;;
36443;SDS011;24692;45.642;13.806;2024-01-15T04:44:34;67.30;;;40.87;;
36443;SDS011;24692;45.642;13.806;2024-01-15T04:47:00;66.43;;;40.03;;
36443;SDS011;24692;45.642;13.806;2024-01-15T04:49:26;68.60;;;40.50;;
36443;SDS011;24692;45.642;13.806;2024-01-15T04:51:52;69.40;;;42.37;;
36443;SDS011;24692;45.642;13.806;2024-01-15T04:54:18;66.23;;;41.33;;
36443;SDS011;24692;45.642;13.806;2024-01-15T04:56:44;71.10;;;43.90;;
36443;SDS011;24692;45.642;13.806;2024-01-15T04:59:10;61.97;;;39.10;;
36443;SDS011;24692;45.642;13.806;2024-01-15T05:01:36;72.67;;;43.07;;
36443;SDS011;24692;45.642;13.806;2024-01-15T05:04:01;70.43;;;41.70;;
36443;SDS011;24692;45.642;13.806;2024-01-15T05:06:27;71.27;;;41.93;;
36443;SDS011;24692;45.642;13.806;2024-01-15T05:08:53;68.00;;;40.70;;
36443;SDS011;24692;45.642;13.806;2024-01-15T05:11:19;60.87;;;38.23;;
36443;SDS011;24692;45.642;13.806;2024-01-15T05:13:44;66.77;;;41.27;;
36443;SDS011;24692;45.642;13.806;2024-01-15T05:16:10;65.00;;;38.77;;
36443;SDS011;24692;45.642;13.806;2024-01-15T05:18:36;57.60;;;35.87;;
36443;SDS011;24692;45.642;13.806;2024-01-15T05:21:04;59.87;;;36.37;;
36443;SDS011;24692;45.642;13.806;2024-01-15T05:23:33;65.03;;;39.90;;
36443;SDS011;24692;45.642;13.806;2024-01-15T05:25:59;68.10;;;41.27;;
36443;SDS011;24692;45.642;13.806;2024-01-15T05:28:25;63.10;;;37.80;;
36443;SDS011;24692;45.642;13.806;2024-01-15T05:30:51;63.63;;;38.43;;
36443;SDS011;24692;45.642;13.806;2024-01-15T05:33:17;59.87;;;38.13;;
36443;SDS011;24692;45.642;13.806;2024-01-15T05:35:42;57.27;;;35.40;;
36443;SDS011;24692;45.642;13.806;2024-01-15T05:38:08;59.93;;;36.63;;
36443;SDS011;24692;45.642;13.806;2024-01-15T05:40:34;64.80;;;38.20;;
36443;SDS011;24692;45.642;13.806;2024-01-15T05:43:00;61.27;;;38.00;;
36443;SDS011;24692;45.642;13.806;2024-01-15T05:45:26;62.37;;;38.13;;
36443;SDS011;24692;45.642;13.806;2024-01-15T05:47:52;70.57;;;41.73;;
36443;SDS011;24692;45.642;13.806;2024-01-15T05:50:18;63.13;;;39.30;;
36443;SDS011;24692;45.642;13.806;2024-01-15T05:52:43;63.23;;;38.73;;
36443;SDS011;24692;45.642;13.806;2024-01-15T05:55:09;70.33;;;41.70;;
36443;SDS011;24692;45.642;13.806;2024-01-15T05:57:35;62.83;;;38.47;;
36443;SDS011;24692;45.642;13.806;2024-01-15T06:00:02;67.73;;;39.57;;
36443;SDS011;24692;45.642;13.806;2024-01-15T06:02:28;68.07;;;40.50;;
36443;SDS011;24692;45.642;13.806;2024-01-15T06:04:54;73.40;;;43.80;;
36443;SDS011;24692;45.642;13.806;2024-01-15T06:07:19;72.67;;;43.97;;
36443;SDS011;24692;45.642;13.806;2024-01-15T06:09:45;76.23;;;43.80;;
36443;SDS011;24692;45.642;13.806;2024-01-15T06:12:11;73.43;;;44.57;;
36443;SDS011;24692;45.642;13.806;2024-01-15T06:14:37;67.53;;;41.17;;
36443;SDS011;24692;45.642;13.806;2024-01-15T06:17:03;72.00;;;43.77;;
36443;SDS011;24692;45.642;13.806;2024-01-15T06:19:28;67.63;;;42.00;;
36443;SDS011;24692;45.642;13.806;2024-01-15T06:21:54;71.53;;;44.27;;
36443;SDS011;24692;45.642;13.806;2024-01-15T06:24:20;65.27;;;38.63;;
36443;SDS011;24692;45.642;13.806;2024-01-15T06:26:46;62.17;;;37.53;;
36443;SDS011;24692;45.642;13.806;2024-01-15T06:29:12;72.83;;;43.43;;
36443;SDS011;24692;45.642;13.806;2024-01-15T06:31:37;51.90;;;32.53;;
36443;SDS011;24692;45.642;13.806;2024-01-15T06:34:03;51.40;;;32.53;;
36443;SDS011;24692;45.642;13.806;2024-01-15T06:36:29;46.20;;;30.73;;
36443;SDS011;24692;45.642;13.806;2024-01-15T06:38:54;43.57;;;28.73;;
36443;SDS011;24692;45.642;13.806;2024-01-15T06:41:21;51.67;;;30.43;;
36443;SDS011;24692;45.642;13.806;2024-01-15T06:43:46;40.43;;;27.60;;
36443;SDS011;24692;45.642;13.806;2024-01-15T06:46:13;37.90;;;25.90;;
36443;SDS011;24692;45.642;13.806;2024-01-15T06:48:47;36.43;;;25.53;;
36443;SDS011;24692;45.642;13.806;2024-01-15T06:51:13;37.70;;;27.03;;
36443;SDS011;24692;45.642;13.806;2024-01-15T06:53:40;40.53;;;26.70;;
36443;SDS011;24692;45.642;13.806;2024-01-15T06:56:06;36.73;;;25.03;;
36443;SDS011;24692;45.642;13.806;2024-01-15T06:58:32;39.40;;;27.73;;
36443;SDS011;24692;45.642;13.806;2024-01-15T07:00:57;44.37;;;29.97;;
36443;SDS011;24692;45.642;13.806;2024-01-15T07:03:23;37.80;;;25.10;;
36443;SDS011;24692;45.642;13.806;2024-01-15T07:05:49;40.10;;;27.73;;
36443;SDS011;24692;45.642;13.806;2024-01-15T07:08:15;38.70;;;26.57;;
36443;SDS011;24692;45.642;13.806;2024-01-15T07:10:40;36.90;;;25.67;;
36443;SDS011;24692;45.642;13.806;2024-01-15T07:13:06;43.40;;;30.27;;
36443;SDS011;24692;45.642;13.806;2024-01-15T07:15:32;41.77;;;29.60;;
36443;SDS011;24692;45.642;13.806;2024-01-15T07:17:57;39.33;;;27.87;;
36443;SDS011;24692;45.642;13.806;2024-01-15T07:20:23;42.13;;;29.03;;
36443;SDS011;24692;45.642;13.806;2024-01-15T07:22:50;40.50;;;28.57;;
36443;SDS011;24692;45.642;13.806;2024-01-15T07:25:16;42.60;;;29.20;;
36443;SDS011;24692;45.642;13.806;2024-01-15T07:27:42;49.70;;;32.90;;
36443;SDS011;24692;45.642;13.806;2024-01-15T07:30:10;49.60;;;33.50;;
36443;SDS011;24692;45.642;13.806;2024-01-15T07:32:36;56.87;;;38.40;;
36443;SDS011;24692;45.642;13.806;2024-01-15T07:35:03;42.83;;;27.07;;
36443;SDS011;24692;45.642;13.806;2024-01-15T07:37:29;64.33;;;41.10;;
36443;SDS011;24692;45.642;13.806;2024-01-15T07:39:54;64.63;;;41.27;;
36443;SDS011;24692;45.642;13.806;2024-01-15T07:42:20;65.57;;;42.37;;
36443;SDS011;24692;45.642;13.806;2024-01-15T07:44:46;68.77;;;42.93;;
36443;SDS011;24692;45.642;13.806;2024-01-15T07:47:12;69.70;;;45.63;;
36443;SDS011;24692;45.642;13.806;2024-01-15T07:49:37;74.47;;;45.33;;
36443;SDS011;24692;45.642;13.806;2024-01-15T07:52:03;72.67;;;46.30;;
36443;SDS011;24692;45.642;13.806;2024-01-15T07:54:30;71.13;;;44.40;;
36443;SDS011;24692;45.642;13.806;2024-01-15T07:56:57;67.10;;;42.97;;
36443;SDS011;24692;45.642;13.806;2024-01-15T07:59:24;70.23;;;43.70;;
36443;SDS011;24692;45.642;13.806;2024-01-15T08:01:51;73.83;;;45.83;;
36443;SDS011;24692;45.642;13.806;2024-01-15T08:04:17;72.13;;;44.07;;
36443;SDS011;24692;45.642;13.806;2024-01-15T08:06:44;67.90;;;44.37;;
36443;SDS011;24692;45.642;13.806;2024-01-15T08:09:10;70.30;;;43.33;;
36443;SDS011;24692;45.642;13.806;2024-01-15T08:11:36;69.07;;;42.03;;
36443;SDS011;24692;45.642;13.806;2024-01-15T08:14:04;67.10;;;42.43;;
36443;SDS011;24692;45.642;13.806;2024-01-15T08:16:30;68.43;;;43.83;;
36443;SDS011;24692;45.642;13.806;2024-01-15T08:18:55;69.10;;;41.97;;
36443;SDS011;24692;45.642;13.806;2024-01-15T08:21:21;70.63;;;42.63;;
36443;SDS011;24692;45.642;13.806;2024-01-15T08:23:47;65.23;;;41.73;;
36443;SDS011;24692;45.642;13.806;2024-01-15T08:26:13;69.30;;;42.53;;
36443;SDS011;24692;45.642;13.806;2024-01-15T08:28:38;75.20;;;44.20;;
36443;SDS011;24692;45.642;13.806;2024-01-15T08:31:04;73.43;;;43.67;;
36443;SDS011;24692;45.642;13.806;2024-01-15T08:33:30;76.40;;;44.70;;
36443;SDS011;24692;45.642;13.806;2024-01-15T08:35:55;68.37;;;42.37;;
36443;SDS011;24692;45.642;13.806;2024-01-15T08:38:21;68.07;;;42.73;;
36443;SDS011;24692;45.642;13.806;2024-01-15T08:40:49;69.17;;;44.00;;
36443;SDS011;24692;45.642;13.806;2024-01-15T08:43:15;68.83;;;43.07;;
36443;SDS011;24692;45.642;13.806;2024-01-15T08:45:40;70.50;;;44.67;;
36443;SDS011;24692;45.642;13.806;2024-01-15T08:48:06;69.13;;;44.20;;
36443;SDS011;24692;45.642;13.806;2024-01-15T08:50:32;71.93;;;45.43;;
36443;SDS011;24692;45.642;13.806;2024-01-15T08:52:58;72.57;;;45.57;;
36443;SDS011;24692;45.642;13.806;2024-01-15T08:55:24;75.27;;;47.23;;
36443;SDS011;24692;45.642;13.806;2024-01-15T08:57:50;76.50;;;47.23;;
36443;SDS011;24692;45.642;13.806;2024-01-15T09:00:16;75.27;;;46.90;;
36443;SDS011;24692;45.642;13.806;2024-01-15T09:02:42;82.17;;;48.93;;
36443;SDS011;24692;45.642;13.806;2024-01-15T09:05:08;78.23;;;47.97;;
36443;SDS011;24692;45.642;13.806;2024-01-15T09:07:34;76.23;;;46.30;;
36443;SDS011;24692;45.642;13.806;2024-01-15T09:10:00;77.00;;;47.37;;
36443;SDS011;24692;45.642;13.806;2024-01-15T09:12:26;89.03;;;51.10;;
36443;SDS011;24692;45.642;13.806;2024-01-15T09:14:52;91.77;;;52.50;;
36443;SDS011;24692;45.642;13.806;2024-01-15T09:17:19;101.33;;;58.40;;
36443;SDS011;24692;45.642;13.806;2024-01-15T09:19:45;103.37;;;60.40;;
36443;SDS011;24692;45.642;13.806;2024-01-15T09:22:12;100.70;;;60.80;;
36443;SDS011;24692;45.642;13.806;2024-01-15T09:24:40;102.33;;;60.63;;
36443;SDS011;24692;45.642;13.806;2024-01-15T09:27:07;105.17;;;60.60;;
36443;SDS011;24692;45.642;13.806;2024-01-15T09:29:32;105.30;;;59.47;;
36443;SDS011;24692;45.642;13.806;2024-01-15T09:31:58;95.27;;;59.30;;
36443;SDS011;24692;45.642;13.806;2024-01-15T09:34:24;95.17;;;57.93;;
36443;SDS011;24692;45.642;13.806;2024-01-15T09:36:50;99.53;;;60.13;;
36443;SDS011;24692;45.642;13.806;2024-01-15T09:39:15;95.30;;;56.63;;
36443;SDS011;24692;45.642;13.806;2024-01-15T09:41:41;88.53;;;54.37;;
36443;SDS011;24692;45.642;13.806;2024-01-15T09:44:09;85.70;;;53.37;;
36443;SDS011;24692;45.642;13.806;2024-01-15T09:46:36;86.07;;;52.00;;
36443;SDS011;24692;45.642;13.806;2024-01-15T09:49:03;87.37;;;51.90;;
36443;SDS011;24692;45.642;13.806;2024-01-15T09:51:33;88.80;;;53.20;;
36443;SDS011;24692;45.642;13.806;2024-01-15T09:53:59;88.97;;;52.43;;
36443;SDS011;24692;45.642;13.806;2024-01-15T09:56:24;88.43;;;52.77;;
36443;SDS011;24692;45.642;13.806;2024-01-15T09:58:50;86.40;;;53.03;;
36443;SDS011;24692;45.642;13.806;2024-01-15T10:01:22;85.60;;;51.53;;
36443;SDS011;24692;45.642;13.806;2024-01-15T10:03:48;79.57;;;49.17;;
36443;SDS011;24692;45.642;13.806;2024-01-15T10:06:18;82.40;;;50.63;;
36443;SDS011;24692;45.642;13.806;2024-01-15T10:08:47;87.20;;;51.43;;
36443;SDS011;24692;45.642;13.806;2024-01-15T10:11:16;82.87;;;51.43;;
36443;SDS011;24692;45.642;13.806;2024-01-15T10:13:45;80.43;;;49.03;;
36443;SDS011;24692;45.642;13.806;2024-01-15T10:16:18;81.77;;;50.73;;
36443;SDS011;24692;45.642;13.806;2024-01-15T10:18:44;77.93;;;48.63;;
36443;SDS011;24692;45.642;13.806;2024-01-15T10:21:10;77.50;;;47.60;;
36443;SDS011;24692;45.642;13.806;2024-01-15T10:23:35;78.63;;;47.10;;
36443;SDS011;24692;45.642;13.806;2024-01-15T10:26:01;75.60;;;47.23;;
36443;SDS011;24692;45.642;13.806;2024-01-15T10:28:28;72.37;;;44.53;;
36443;SDS011;24692;45.642;13.806;2024-01-15T10:30:57;73.37;;;44.67;;
36443;SDS011;24692;45.642;13.806;2024-01-15T10:33:26;72.13;;;46.70;;
36443;SDS011;24692;45.642;13.806;2024-01-15T10:35:56;71.70;;;46.37;;
36443;SDS011;24692;45.642;13.806;2024-01-15T10:38:23;73.17;;;46.97;;
36443;SDS011;24692;45.642;13.806;2024-01-15T10:40:53;78.43;;;47.17;;
36443;SDS011;24692;45.642;13.806;2024-01-15T10:43:19;71.87;;;46.00;;
36443;SDS011;24692;45.642;13.806;2024-01-15T10:45:46;72.67;;;46.20;;
36443;SDS011;24692;45.642;13.806;2024-01-15T10:48:16;72.13;;;45.57;;
36443;SDS011;24692;45.642;13.806;2024-01-15T10:50:44;75.07;;;44.90;;
36443;SDS011;24692;45.642;13.806;2024-01-15T10:53:15;70.53;;;44.33;;
36443;SDS011;24692;45.642;13.806;2024-01-15T10:55:42;67.70;;;44.03;;
36443;SDS011;24692;45.642;13.806;2024-01-15T10:58:08;72.30;;;44.70;;
36443;SDS011;24692;45.642;13.806;2024-01-15T11:00:38;70.90;;;44.87;;
36443;SDS011;24692;45.642;13.806;2024-01-15T11:03:07;71.67;;;44.17;;
36443;SDS011;24692;45.642;13.806;2024-01-15T11:05:42;73.43;;;45.07;;
36443;SDS011;24692;45.642;13.806;2024-01-15T11:08:09;71.33;;;44.93;;
36443;SDS011;24692;45.642;13.806;2024-01-15T11:13:20;74.37;;;45.20;;
36443;SDS011;24692;45.642;13.806;2024-01-15T11:18:30;77.47;;;47.60;;
36443;SDS011;24692;45.642;13.806;2024-01-15T11:21:32;73.43;;;44.67;;
36443;SDS011;24692;45.642;13.806;2024-01-15T11:28:57;69.47;;;42.67;;
36443;SDS011;24692;45.642;13.806;2024-01-15T11:33:53;70.10;;;43.60;;
36443;SDS011;24692;45.642;13.806;2024-01-15T11:36:20;68.00;;;43.67;;
36443;SDS011;24692;45.642;13.806;2024-01-15T11:38:46;68.90;;;42.50;;
36443;SDS011;24692;45.642;13.806;2024-01-15T11:41:15;73.63;;;44.63;;
36443;SDS011;24692;45.642;13.806;2024-01-15T11:43:41;72.43;;;42.20;;
36443;SDS011;24692;45.642;13.806;2024-01-15T11:46:10;74.17;;;44.43;;
36443;SDS011;24692;45.642;13.806;2024-01-15T11:48:44;78.70;;;45.10;;
36443;SDS011;24692;45.642;13.806;2024-01-15T11:51:13;71.93;;;44.00;;
36443;SDS011;24692;45.642;13.806;2024-01-15T11:53:43;78.60;;;47.20;;
36443;SDS011;24692;45.642;13.806;2024-01-15T11:56:19;73.57;;;44.10;;
36443;SDS011;24692;45.642;13.806;2024-01-15T11:58:48;73.60;;;44.07;;
36443;SDS011;24692;45.642;13.806;2024-01-15T12:01:15;73.67;;;44.27;;
36443;SDS011;24692;45.642;13.806;2024-01-15T12:03:42;65.77;;;40.87;;
36443;SDS011;24692;45.642;13.806;2024-01-15T12:06:09;66.27;;;41.20;;
36443;SDS011;24692;45.642;13.806;2024-01-15T12:08:36;64.77;;;41.13;;
36443;SDS011;24692;45.642;13.806;2024-01-15T12:11:05;63.93;;;38.90;;
36443;SDS011;24692;45.642;13.806;2024-01-15T12:13:34;59.37;;;38.07;;
36443;SDS011;24692;45.642;13.806;2024-01-15T12:16:01;62.07;;;38.77;;
36443;SDS011;24692;45.642;13.806;2024-01-15T12:18:29;58.00;;;36.17;;
36443;SDS011;24692;45.642;13.806;2024-01-15T12:20:54;51.60;;;32.13;;
36443;SDS011;24692;45.642;13.806;2024-01-15T12:23:20;47.07;;;29.67;;
36443;SDS011;24692;45.642;13.806;2024-01-15T12:25:46;45.37;;;28.50;;
36443;SDS011;24692;45.642;13.806;2024-01-15T12:28:12;50.40;;;29.73;;
36443;SDS011;24692;45.642;13.806;2024-01-15T12:30:38;48.63;;;29.63;;
36443;SDS011;24692;45.642;13.806;2024-01-15T12:33:04;45.43;;;29.93;;
36443;SDS011;24692;45.642;13.806;2024-01-15T12:35:31;42.80;;;27.33;;
36443;SDS011;24692;45.642;13.806;2024-01-15T12:37:56;42.00;;;27.87;;
36443;SDS011;24692;45.642;13.806;2024-01-15T12:40:23;44.13;;;29.03;;
36443;SDS011;24692;45.642;13.806;2024-01-15T12:42:49;47.80;;;29.63;;
36443;SDS011;24692;45.642;13.806;2024-01-15T12:45:15;45.03;;;28.87;;
36443;SDS011;24692;45.642;13.806;2024-01-15T12:47:41;42.30;;;27.93;;
36443;SDS011;24692;45.642;13.806;2024-01-15T12:50:09;48.27;;;30.10;;
36443;SDS011;24692;45.642;13.806;2024-01-15T12:52:37;50.40;;;29.97;;
36443;SDS011;24692;45.642;13.806;2024-01-15T12:55:05;48.97;;;30.77;;
36443;SDS011;24692;45.642;13.806;2024-01-15T12:57:32;47.23;;;29.00;;
36443;SDS011;24692;45.642;13.806;2024-01-15T12:59:57;43.73;;;28.43;;
36443;SDS011;24692;45.642;13.806;2024-01-15T13:02:23;44.40;;;26.37;;
36443;SDS011;24692;45.642;13.806;2024-01-15T13:04:49;41.00;;;26.27;;
36443;SDS011;24692;45.642;13.806;2024-01-15T13:07:15;44.43;;;26.60;;
36443;SDS011;24692;45.642;13.806;2024-01-15T13:09:40;47.37;;;29.80;;
36443;SDS011;24692;45.642;13.806;2024-01-15T13:12:06;55.07;;;31.17;;
36443;SDS011;24692;45.642;13.806;2024-01-15T13:14:32;50.40;;;31.40;;
36443;SDS011;24692;45.642;13.806;2024-01-15T13:16:58;45.60;;;30.47;;
36443;SDS011;24692;45.642;13.806;2024-01-15T13:19:24;48.90;;;31.40;;
36443;SDS011;24692;45.642;13.806;2024-01-15T13:21:50;53.27;;;34.03;;
36443;SDS011;24692;45.642;13.806;2024-01-15T13:24:16;49.80;;;33.23;;
36443;SDS011;24692;45.642;13.806;2024-01-15T13:26:42;49.87;;;32.47;;
36443;SDS011;24692;45.642;13.806;2024-01-15T13:29:08;51.47;;;32.50;;
36443;SDS011;24692;45.642;13.806;2024-01-15T13:31:34;49.37;;;31.60;;
36443;SDS011;24692;45.642;13.806;2024-01-15T13:34:00;49.07;;;31.03;;
36443;SDS011;24692;45.642;13.806;2024-01-15T13:36:26;55.47;;;32.67;;
36443;SDS011;24692;45.642;13.806;2024-01-15T13:38:52;55.73;;;34.37;;
36443;SDS011;24692;45.642;13.806;2024-01-15T13:41:21;50.07;;;32.97;;
36443;SDS011;24692;45.642;13.806;2024-01-15T13:43:52;52.20;;;33.67;;
36443;SDS011;24692;45.642;13.806;2024-01-15T13:46:19;52.23;;;33.27;;
36443;SDS011;24692;45.642;13.806;2024-01-15T13:48:46;54.53;;;34.70;;
36443;SDS011;24692;45.642;13.806;2024-01-15T13:51:12;52.07;;;33.47;;
36443;SDS011;24692;45.642;13.806;2024-01-15T13:53:38;56.13;;;34.70;;
36443;SDS011;24692;45.642;13.806;2024-01-15T13:56:05;58.10;;;35.87;;
36443;SDS011;24692;45.642;13.806;2024-01-15T13:58:31;58.57;;;37.10;;
36443;SDS011;24692;45.642;13.806;2024-01-15T14:01:00;61.57;;;36.77;;
36443;SDS011;24692;45.642;13.806;2024-01-15T14:03:28;57.00;;;36.83;;
36443;SDS011;24692;45.642;13.806;2024-01-15T14:05:54;58.73;;;38.10;;
36443;SDS011;24692;45.642;13.806;2024-01-15T14:08:20;60.77;;;36.23;;
36443;SDS011;24692;45.642;13.806;2024-01-15T14:10:46;63.53;;;38.50;;
36443;SDS011;24692;45.642;13.806;2024-01-15T14:13:11;63.80;;;38.90;;
36443;SDS011;24692;45.642;13.806;2024-01-15T14:15:37;58.70;;;37.40;;
36443;SDS011;24692;45.642;13.806;2024-01-15T14:18:03;65.43;;;40.17;;